createdAt,value
2022-07-27T00:00:11.070Z,0
2022-07-27T00:01:26.063Z,0
2022-07-27T00:02:42.450Z,0
2022-07-27T00:03:58.652Z,0
2022-07-27T00:05:14.633Z,0
2022-07-27T00:06:30.827Z,0
2022-07-27T00:07:47.001Z,0
2022-07-27T00:09:03.199Z,0
2022-07-27T00:10:19.590Z,0
2022-07-27T00:11:35.761Z,0
2022-07-27T00:12:51.956Z,0
2022-07-27T00:14:08.142Z,0
2022-07-27T00:15:24.320Z,0
2022-07-27T00:16:40.314Z,0
2022-07-27T00:17:55.730Z,0
2022-07-27T00:19:11.911Z,0
2022-07-27T00:20:28.085Z,0
2022-07-27T00:21:44.090Z,0
2022-07-27T00:23:00.468Z,0
2022-07-27T00:24:16.461Z,0
2022-07-27T00:25:32.834Z,0
2022-07-27T00:26:49.037Z,0
2022-07-27T00:28:05.010Z,0
2022-07-27T00:29:21.397Z,0
2022-07-27T00:30:37.583Z,0
2022-07-27T00:31:53.570Z,0
2022-07-27T00:33:09.774Z,0
2022-07-27T00:34:25.171Z,0
2022-07-27T00:35:41.357Z,0
2022-07-27T00:36:57.540Z,0
2022-07-27T00:38:13.729Z,0
2022-07-27T00:39:29.714Z,0
2022-07-27T00:40:45.911Z,0
2022-07-27T00:42:02.305Z,0
2022-07-27T00:43:18.485Z,0
2022-07-27T00:44:34.460Z,0
2022-07-27T00:45:50.645Z,0
2022-07-27T00:47:06.847Z,0
2022-07-27T00:48:23.236Z,0
2022-07-27T00:49:39.212Z,0
2022-07-27T00:50:54.618Z,0
2022-07-27T00:52:10.802Z,0
2022-07-27T00:53:26.794Z,0
2022-07-27T00:54:42.981Z,0
2022-07-27T00:55:59.377Z,0
2022-07-27T00:57:15.562Z,0
2022-07-27T00:58:31.532Z,0
2022-07-27T00:59:47.925Z,0
2022-07-27T01:01:04.118Z,0
2022-07-27T01:02:20.089Z,0
2022-07-27T01:03:36.281Z,0
2022-07-27T01:04:52.686Z,0
2022-07-27T01:06:08.874Z,0
2022-07-27T01:07:24.073Z,0
2022-07-27T01:08:40.051Z,0
2022-07-27T01:09:56.229Z,0
2022-07-27T01:11:12.417Z,0
2022-07-27T01:12:28.828Z,0
2022-07-27T01:13:45.004Z,0
2022-07-27T01:15:00.978Z,0
2022-07-27T01:16:17.380Z,0
2022-07-27T01:17:33.353Z,0
2022-07-27T01:18:49.760Z,0
2022-07-27T01:20:05.938Z,0
2022-07-27T01:21:22.125Z,0
2022-07-27T01:22:38.317Z,0
2022-07-27T01:23:53.532Z,0
2022-07-27T01:25:09.501Z,0
2022-07-27T01:26:25.897Z,0
2022-07-27T01:27:41.870Z,0
2022-07-27T01:28:58.282Z,0
2022-07-27T01:30:14.459Z,0
2022-07-27T01:31:30.644Z,0
2022-07-27T01:32:46.621Z,0
2022-07-27T01:34:03.033Z,0
2022-07-27T01:35:19.216Z,0
2022-07-27T01:36:35.188Z,0
2022-07-27T01:37:51.382Z,0
2022-07-27T01:39:07.768Z,0
2022-07-27T01:40:22.757Z,0
2022-07-27T01:41:39.171Z,0
2022-07-27T01:42:55.355Z,0
2022-07-27T01:44:11.542Z,0
2022-07-27T01:45:27.727Z,0
2022-07-27T01:46:43.904Z,0
2022-07-27T01:47:59.889Z,0
2022-07-27T01:49:16.295Z,0
2022-07-27T01:50:32.476Z,0
2022-07-27T01:51:48.661Z,0
2022-07-27T01:53:04.860Z,0
2022-07-27T01:54:21.043Z,0
2022-07-27T01:55:37.013Z,0
2022-07-27T01:56:52.418Z,0
2022-07-27T01:58:08.621Z,0
2022-07-27T01:59:24.810Z,0
2022-07-27T02:00:40.760Z,0
2022-07-27T02:01:57.175Z,0
2022-07-27T02:03:13.137Z,0
2022-07-27T02:04:29.326Z,0
2022-07-27T02:05:45.743Z,0
2022-07-27T02:07:01.928Z,0
2022-07-27T02:08:18.109Z,0
2022-07-27T02:09:34.306Z,0
2022-07-27T02:10:50.269Z,0
2022-07-27T02:12:06.677Z,0
2022-07-27T02:13:21.671Z,0
2022-07-27T02:14:38.078Z,0
2022-07-27T02:15:54.273Z,0
2022-07-27T02:17:10.456Z,0
2022-07-27T02:18:26.429Z,0
2022-07-27T02:19:42.839Z,0
2022-07-27T02:20:59.026Z,0
2022-07-27T02:22:14.978Z,0
2022-07-27T02:23:31.402Z,0
2022-07-27T02:24:47.374Z,0
2022-07-27T02:26:03.551Z,0
2022-07-27T02:27:19.746Z,0
2022-07-27T02:28:36.165Z,0
2022-07-27T02:29:51.367Z,0
2022-07-27T02:31:07.313Z,0
2022-07-27T02:32:23.740Z,0
2022-07-27T02:33:39.692Z,0
2022-07-27T02:34:56.117Z,0
2022-07-27T02:36:12.310Z,0
2022-07-27T02:37:28.495Z,0
2022-07-27T02:38:44.686Z,0
2022-07-27T02:40:00.647Z,0
2022-07-27T02:41:16.828Z,0
2022-07-27T02:42:33.253Z,0
2022-07-27T02:43:49.209Z,0
2022-07-27T02:45:05.632Z,0
2022-07-27T02:46:20.600Z,0
2022-07-27T02:47:37.031Z,0
2022-07-27T02:48:52.989Z,0
2022-07-27T02:50:09.399Z,4
2022-07-27T02:51:25.594Z,4
2022-07-27T02:52:41.777Z,4
2022-07-27T02:53:56.989Z,4
2022-07-27T02:55:13.172Z,4
2022-07-27T02:56:29.130Z,4
2022-07-27T02:57:45.547Z,4
2022-07-27T02:59:01.736Z,8
2022-07-27T03:00:17.933Z,8
2022-07-27T03:01:34.116Z,8
2022-07-27T03:02:50.318Z,8
2022-07-27T03:04:06.266Z,12
2022-07-27T03:05:22.698Z,16
2022-07-27T03:06:38.887Z,20
2022-07-27T03:07:55.068Z,20
2022-07-27T03:09:11.246Z,20
2022-07-27T03:10:26.455Z,24
2022-07-27T03:11:42.420Z,24
2022-07-27T03:12:58.842Z,32
2022-07-27T03:14:15.026Z,36
2022-07-27T03:15:31.207Z,40
2022-07-27T03:16:47.173Z,44
2022-07-27T03:18:03.604Z,44
2022-07-27T03:19:19.558Z,48
2022-07-27T03:20:35.965Z,56
2022-07-27T03:21:52.157Z,60
2022-07-27T03:23:08.115Z,64
2022-07-27T03:24:24.547Z,72
2022-07-27T03:25:40.494Z,80
2022-07-27T03:26:55.687Z,80
2022-07-27T03:28:12.121Z,88
2022-07-27T03:29:28.321Z,96
2022-07-27T03:30:44.260Z,100
2022-07-27T03:32:00.453Z,108
2022-07-27T03:33:16.884Z,116
2022-07-27T03:34:32.831Z,120
2022-07-27T03:35:49.008Z,128
2022-07-27T03:37:05.447Z,136
2022-07-27T03:38:21.637Z,140
2022-07-27T03:39:37.820Z,152
2022-07-27T03:40:54.013Z,152
2022-07-27T03:42:09.967Z,160
2022-07-27T03:43:25.163Z,164
2022-07-27T03:44:41.601Z,172
2022-07-27T03:45:57.781Z,176
2022-07-27T03:47:13.724Z,176
2022-07-27T03:48:29.913Z,184
2022-07-27T03:49:46.118Z,188
2022-07-27T03:51:02.551Z,204
2022-07-27T03:52:18.729Z,224
2022-07-27T03:53:34.913Z,252
2022-07-27T03:54:51.111Z,280
2022-07-27T03:56:07.050Z,308
2022-07-27T03:57:23.489Z,316
2022-07-27T03:58:39.667Z,304
2022-07-27T03:59:54.886Z,280
2022-07-27T04:01:11.072Z,284
2022-07-27T04:02:27.015Z,300
2022-07-27T04:03:43.449Z,324
2022-07-27T04:04:59.402Z,340
2022-07-27T04:06:15.817Z,360
2022-07-27T04:07:32.008Z,384
2022-07-27T04:08:48.210Z,400
2022-07-27T04:10:04.397Z,400
2022-07-27T04:11:20.584Z,388
2022-07-27T04:12:36.518Z,372
2022-07-27T04:13:52.963Z,360
2022-07-27T04:15:09.160Z,348
2022-07-27T04:16:24.353Z,340
2022-07-27T04:17:40.555Z,332
2022-07-27T04:18:56.724Z,320
2022-07-27T04:20:12.680Z,316
2022-07-27T04:21:29.117Z,316
2022-07-27T04:22:45.295Z,316
2022-07-27T04:24:01.497Z,324
2022-07-27T04:25:17.422Z,332
2022-07-27T04:26:33.874Z,340
2022-07-27T04:27:49.800Z,388
2022-07-27T04:29:06.241Z,420
2022-07-27T04:30:22.434Z,388
2022-07-27T04:31:38.629Z,376
2022-07-27T04:32:53.825Z,392
2022-07-27T04:34:10.019Z,420
2022-07-27T04:35:25.965Z,452
2022-07-27T04:36:42.399Z,488
2022-07-27T04:37:58.583Z,528
2022-07-27T04:39:14.783Z,584
2022-07-27T04:40:30.718Z,576
2022-07-27T04:41:46.910Z,560
2022-07-27T04:43:03.000Z,572
2022-07-27T04:44:19.535Z,596
2022-07-27T04:45:35.718Z,628
2022-07-27T04:46:51.658Z,660
2022-07-27T04:48:08.102Z,692
2022-07-27T04:49:23.300Z,728
2022-07-27T04:50:39.240Z,756
2022-07-27T04:51:55.677Z,780
2022-07-27T04:53:11.864Z,848
2022-07-27T04:54:27.804Z,896
2022-07-27T04:55:44.252Z,944
2022-07-27T04:57:00.441Z,1112
2022-07-27T04:58:16.367Z,1172
2022-07-27T04:59:32.556Z,1220
2022-07-27T05:00:48.743Z,1260
2022-07-27T05:02:05.199Z,1308
2022-07-27T05:03:21.385Z,1336
2022-07-27T05:04:37.577Z,1336
2022-07-27T05:05:52.528Z,1376
2022-07-27T05:07:08.704Z,1392
2022-07-27T05:08:25.165Z,1108
2022-07-27T05:09:41.352Z,1148
2022-07-27T05:10:57.540Z,1344
2022-07-27T05:12:13.469Z,1344
2022-07-27T05:13:29.907Z,1228
2022-07-27T05:14:46.108Z,1396
2022-07-27T05:16:02.295Z,1524
2022-07-27T05:17:18.476Z,1252
2022-07-27T05:18:34.676Z,1280
2022-07-27T05:19:50.872Z,1304
2022-07-27T05:21:06.791Z,1316
2022-07-27T05:22:22.267Z,1328
2022-07-27T05:23:38.184Z,1300
2022-07-27T05:24:54.629Z,1252
2022-07-27T05:26:10.562Z,1544
2022-07-27T05:27:27.018Z,1292
2022-07-27T05:28:42.935Z,1316
2022-07-27T05:29:59.384Z,1352
2022-07-27T05:31:15.584Z,1324
2022-07-27T05:32:31.773Z,1284
2022-07-27T05:33:47.964Z,1220
2022-07-27T05:35:03.881Z,1164
2022-07-27T05:36:20.083Z,1108
2022-07-27T05:37:36.258Z,1100
2022-07-27T05:38:51.743Z,1052
2022-07-27T05:40:07.918Z,1036
2022-07-27T05:41:23.843Z,1080
2022-07-27T05:42:40.301Z,1156
2022-07-27T05:43:56.227Z,1168
2022-07-27T05:45:12.675Z,1164
2022-07-27T05:46:28.863Z,1144
2022-07-27T05:47:45.047Z,1060
2022-07-27T05:49:01.249Z,980
2022-07-27T05:50:17.439Z,948
2022-07-27T05:51:33.642Z,980
2022-07-27T05:52:49.828Z,988
2022-07-27T05:54:05.996Z,900
2022-07-27T05:55:21.207Z,840
2022-07-27T05:56:37.402Z,828
2022-07-27T05:57:53.586Z,852
2022-07-27T05:59:09.779Z,920
2022-07-27T06:00:25.955Z,836
2022-07-27T06:01:42.161Z,912
2022-07-27T06:02:58.343Z,1048
2022-07-27T06:04:14.534Z,1212
2022-07-27T06:05:30.715Z,1344
2022-07-27T06:06:46.920Z,1496
2022-07-27T06:08:03.093Z,1568
2022-07-27T06:09:19.289Z,1616
2022-07-27T06:10:35.470Z,1704
2022-07-27T06:11:50.689Z,1800
2022-07-27T06:13:06.880Z,1552
2022-07-27T06:14:23.056Z,1840
2022-07-27T06:15:39.242Z,1752
2022-07-27T06:16:55.451Z,1976
2022-07-27T06:18:11.625Z,1840
2022-07-27T06:19:27.815Z,1704
2022-07-27T06:20:44.003Z,1604
2022-07-27T06:22:00.186Z,1588
2022-07-27T06:23:16.384Z,1592
2022-07-27T06:24:32.566Z,1608
2022-07-27T06:25:48.770Z,1640
2022-07-27T06:27:04.945Z,1692
2022-07-27T06:28:20.166Z,1728
2022-07-27T06:29:36.353Z,1752
2022-07-27T06:30:52.530Z,1792
2022-07-27T06:32:08.718Z,1976
2022-07-27T06:33:24.906Z,2280
2022-07-27T06:34:41.105Z,2212
2022-07-27T06:35:57.284Z,2444
2022-07-27T06:37:13.472Z,2244
2022-07-27T06:38:29.669Z,2324
2022-07-27T06:39:45.860Z,2428
2022-07-27T06:41:02.053Z,2532
2022-07-27T06:42:18.228Z,2668
2022-07-27T06:43:34.424Z,2512
2022-07-27T06:44:49.621Z,2784
2022-07-27T06:46:05.810Z,2504
2022-07-27T06:47:22.019Z,2296
2022-07-27T06:48:38.197Z,2688
2022-07-27T06:49:54.389Z,2712
2022-07-27T06:51:10.569Z,2704
2022-07-27T06:52:26.753Z,2692
2022-07-27T06:53:42.955Z,2704
2022-07-27T06:54:59.144Z,2620
2022-07-27T06:56:15.339Z,2584
2022-07-27T06:57:31.529Z,2576
2022-07-27T06:58:47.720Z,2572
2022-07-27T07:00:03.894Z,2580
2022-07-27T07:01:19.103Z,2612
2022-07-27T07:02:35.288Z,2680
2022-07-27T07:03:51.474Z,2748
2022-07-27T07:05:07.672Z,2660
2022-07-27T07:06:23.849Z,2752
2022-07-27T07:07:40.051Z,2896
2022-07-27T07:08:55.253Z,2772
2022-07-27T07:10:11.440Z,2856
2022-07-27T07:11:27.631Z,3016
2022-07-27T07:12:43.828Z,3112
2022-07-27T07:14:00.007Z,3104
2022-07-27T07:15:16.205Z,3104
2022-07-27T07:16:32.387Z,2964
2022-07-27T07:17:48.564Z,2740
2022-07-27T07:19:04.764Z,3004
2022-07-27T07:20:20.958Z,2664
2022-07-27T07:21:37.143Z,2348
2022-07-27T07:22:53.332Z,2228
2022-07-27T07:24:09.532Z,2196
2022-07-27T07:25:24.717Z,2036
2022-07-27T07:26:40.930Z,2228
2022-07-27T07:27:57.106Z,2348
2022-07-27T07:29:13.295Z,2384
2022-07-27T07:30:29.486Z,2448
2022-07-27T07:31:45.680Z,2564
2022-07-27T07:33:01.873Z,2648
2022-07-27T07:34:18.051Z,2700
2022-07-27T07:35:34.240Z,2760
2022-07-27T07:36:50.427Z,2796
2022-07-27T07:38:06.623Z,2792
2022-07-27T07:39:22.823Z,2900
2022-07-27T07:40:39.002Z,2968
2022-07-27T07:41:54.210Z,3064
2022-07-27T07:43:10.408Z,3172
2022-07-27T07:44:26.582Z,3744
2022-07-27T07:45:42.771Z,3816
2022-07-27T07:46:58.966Z,3768
2022-07-27T07:48:15.141Z,3820
2022-07-27T07:49:31.341Z,3764
2022-07-27T07:50:47.540Z,3772
2022-07-27T07:52:03.705Z,3992
2022-07-27T07:53:19.900Z,3888
2022-07-27T07:54:36.081Z,3680
2022-07-27T07:55:52.287Z,3580
2022-07-27T07:57:08.463Z,3572
2022-07-27T07:58:23.662Z,3468
2022-07-27T07:59:39.881Z,3500
2022-07-27T08:00:56.051Z,3804
2022-07-27T08:02:12.245Z,4596
2022-07-27T08:03:28.415Z,4436
2022-07-27T08:04:44.604Z,3324
2022-07-27T08:06:00.809Z,2572
2022-07-27T08:07:17.008Z,2724
2022-07-27T08:08:33.181Z,2744
2022-07-27T08:09:49.369Z,3168
2022-07-27T08:11:05.558Z,2988
2022-07-27T08:12:21.741Z,2732
2022-07-27T08:13:37.953Z,2720
2022-07-27T08:14:53.150Z,2704
2022-07-27T08:16:09.328Z,2652
2022-07-27T08:17:25.532Z,3080
2022-07-27T08:18:41.695Z,3440
2022-07-27T08:19:57.914Z,3600
2022-07-27T08:21:14.111Z,3384
2022-07-27T08:22:30.299Z,3132
2022-07-27T08:23:46.467Z,2512
2022-07-27T08:25:02.668Z,2724
2022-07-27T08:26:18.837Z,3472
2022-07-27T08:27:35.045Z,2872
2022-07-27T08:28:51.246Z,2592
2022-07-27T08:30:07.409Z,2324
2022-07-27T08:31:22.607Z,2084
2022-07-27T08:32:38.824Z,1956
2022-07-27T08:33:54.996Z,1868
2022-07-27T08:35:11.202Z,2112
2022-07-27T08:36:27.386Z,2236
2022-07-27T08:37:43.568Z,1732
2022-07-27T08:38:59.732Z,1436
2022-07-27T08:40:15.951Z,1608
2022-07-27T08:41:32.146Z,1860
2022-07-27T08:42:48.333Z,2728
2022-07-27T08:44:04.517Z,3884
2022-07-27T08:45:20.687Z,4792
2022-07-27T08:46:36.867Z,4904
2022-07-27T08:47:52.113Z,4944
2022-07-27T08:49:08.278Z,5112
2022-07-27T08:50:24.484Z,4968
2022-07-27T08:51:40.647Z,4988
2022-07-27T08:52:56.858Z,4796
2022-07-27T08:54:13.019Z,4076
2022-07-27T08:55:29.230Z,3808
2022-07-27T08:56:45.419Z,4132
2022-07-27T08:58:01.613Z,4576
2022-07-27T08:59:17.809Z,5100
2022-07-27T09:00:33.991Z,4924
2022-07-27T09:01:50.160Z,4688
2022-07-27T09:03:06.362Z,4392
2022-07-27T09:04:21.573Z,4268
2022-07-27T09:05:37.763Z,4212
2022-07-27T09:06:53.954Z,4248
2022-07-27T09:08:10.137Z,3868
2022-07-27T09:09:26.301Z,3712
2022-07-27T09:10:42.494Z,4176
2022-07-27T09:11:58.678Z,4216
2022-07-27T09:13:14.864Z,4384
2022-07-27T09:14:31.082Z,4208
2022-07-27T09:15:47.247Z,4620
2022-07-27T09:17:03.474Z,4172
2022-07-27T09:18:19.664Z,4760
2022-07-27T09:19:35.846Z,4472
2022-07-27T09:20:51.049Z,3912
2022-07-27T09:22:07.248Z,3348
2022-07-27T09:23:23.426Z,2836
2022-07-27T09:24:39.588Z,2812
2022-07-27T09:25:55.774Z,2892
2022-07-27T09:27:11.992Z,3584
2022-07-27T09:28:28.180Z,4572
2022-07-27T09:29:44.380Z,4512
2022-07-27T09:31:00.557Z,4492
2022-07-27T09:32:16.729Z,5440
2022-07-27T09:33:32.937Z,6312
2022-07-27T09:34:49.091Z,5236
2022-07-27T09:36:05.290Z,4012
2022-07-27T09:37:20.488Z,2928
2022-07-27T09:38:36.685Z,2712
2022-07-27T09:39:52.867Z,2976
2022-07-27T09:41:09.099Z,3240
2022-07-27T09:42:25.282Z,4228
2022-07-27T09:43:41.472Z,4468
2022-07-27T09:44:57.657Z,3260
2022-07-27T09:46:13.844Z,2360
2022-07-27T09:47:30.041Z,2192
2022-07-27T09:48:46.232Z,2460
2022-07-27T09:50:02.426Z,2556
2022-07-27T09:51:18.599Z,2424
2022-07-27T09:52:34.804Z,2204
2022-07-27T09:53:49.995Z,2104
2022-07-27T09:55:06.147Z,1996
2022-07-27T09:56:22.389Z,1972
2022-07-27T09:57:38.563Z,2040
2022-07-27T09:58:54.765Z,2372
2022-07-27T10:00:10.898Z,2472
2022-07-27T10:01:27.129Z,2612
2022-07-27T10:02:43.291Z,2668
2022-07-27T10:03:59.511Z,3056
2022-07-27T10:05:15.708Z,3024
2022-07-27T10:06:31.887Z,2940
2022-07-27T10:07:48.088Z,3376
2022-07-27T10:09:04.271Z,3960
2022-07-27T10:10:19.424Z,4008
2022-07-27T10:11:35.666Z,3680
2022-07-27T10:12:51.807Z,3168
2022-07-27T10:14:08.033Z,3296
2022-07-27T10:15:24.230Z,3856
2022-07-27T10:16:40.419Z,4492
2022-07-27T10:17:56.573Z,5456
2022-07-27T10:19:12.792Z,6100
2022-07-27T10:20:28.945Z,6240
2022-07-27T10:21:45.171Z,6032
2022-07-27T10:23:01.360Z,6388
2022-07-27T10:24:17.558Z,6848
2022-07-27T10:25:33.739Z,6944
2022-07-27T10:26:48.951Z,6988
2022-07-27T10:28:05.083Z,7388
2022-07-27T10:29:21.279Z,8004
2022-07-27T10:30:37.507Z,8756
2022-07-27T10:31:53.701Z,9052
2022-07-27T10:33:09.892Z,8680
2022-07-27T10:34:26.075Z,8496
2022-07-27T10:35:42.230Z,9092
2022-07-27T10:36:58.461Z,8376
2022-07-27T10:38:14.612Z,7224
2022-07-27T10:39:30.838Z,5552
2022-07-27T10:40:46.985Z,4836
2022-07-27T10:42:03.177Z,6252
2022-07-27T10:43:18.424Z,7444
2022-07-27T10:44:34.613Z,7668
2022-07-27T10:45:50.801Z,8240
2022-07-27T10:47:06.986Z,8940
2022-07-27T10:48:23.176Z,9720
2022-07-27T10:49:39.374Z,10468
2022-07-27T10:50:55.500Z,9968
2022-07-27T10:52:11.701Z,9696
2022-07-27T10:53:27.938Z,9912
2022-07-27T10:54:44.130Z,8688
2022-07-27T10:56:00.267Z,8400
2022-07-27T10:57:16.507Z,7264
2022-07-27T10:58:32.644Z,7060
2022-07-27T10:59:47.904Z,8148
2022-07-27T11:01:04.088Z,8720
2022-07-27T11:02:20.216Z,8420
2022-07-27T11:03:36.404Z,7472
2022-07-27T11:04:52.657Z,5992
2022-07-27T11:06:08.788Z,5068
2022-07-27T11:07:24.986Z,4740
2022-07-27T11:08:41.219Z,6076
2022-07-27T11:09:57.416Z,8592
2022-07-27T11:11:13.548Z,11772
2022-07-27T11:12:29.788Z,10484
2022-07-27T11:13:45.920Z,9528
2022-07-27T11:15:02.163Z,11084
2022-07-27T11:16:17.380Z,10396
2022-07-27T11:17:33.566Z,9540
2022-07-27T11:18:49.691Z,10064
2022-07-27T11:20:05.941Z,8868
2022-07-27T11:21:22.069Z,8988
2022-07-27T11:22:38.320Z,8124
2022-07-27T11:23:53.468Z,7268
2022-07-27T11:25:09.709Z,8084
2022-07-27T11:26:25.855Z,9964
2022-07-27T11:27:42.035Z,8472
2022-07-27T11:28:58.238Z,6352
2022-07-27T11:30:14.477Z,4804
2022-07-27T11:31:30.662Z,5376
2022-07-27T11:32:46.854Z,6316
2022-07-27T11:34:02.993Z,8320
2022-07-27T11:35:19.237Z,9264
2022-07-27T11:36:35.368Z,13728
2022-07-27T11:37:51.610Z,13408
2022-07-27T11:39:07.782Z,11692
2022-07-27T11:40:22.984Z,12496
2022-07-27T11:41:39.116Z,5120
2022-07-27T11:42:55.312Z,3192
2022-07-27T11:44:11.501Z,2756
2022-07-27T11:45:27.673Z,2484
2022-07-27T11:46:43.927Z,2952
2022-07-27T11:48:00.048Z,3448
2022-07-27T11:49:16.246Z,4308
2022-07-27T11:50:32.492Z,6176
2022-07-27T11:51:48.683Z,7864
2022-07-27T11:53:04.864Z,10740
2022-07-27T11:54:21.056Z,44224
2022-07-27T11:55:37.251Z,6484
2022-07-27T11:56:52.378Z,6588
2022-07-27T11:58:08.572Z,6132
2022-07-27T11:59:24.755Z,5776
2022-07-27T12:00:41.005Z,5708
2022-07-27T12:01:57.197Z,5812
2022-07-27T12:03:13.387Z,6520
2022-07-27T12:04:29.506Z,6712
2022-07-27T12:05:45.686Z,7624
2022-07-27T12:07:01.871Z,4884
2022-07-27T12:08:18.133Z,4272
2022-07-27T12:09:34.312Z,3732
2022-07-27T12:10:50.435Z,3800
2022-07-27T12:12:06.703Z,3864
2022-07-27T12:13:21.838Z,3720
2022-07-27T12:14:38.015Z,3236
2022-07-27T12:15:54.262Z,2888
2022-07-27T12:17:10.388Z,3832
2022-07-27T12:18:26.636Z,5908
2022-07-27T12:19:42.827Z,10324
2022-07-27T12:20:59.000Z,6316
2022-07-27T12:22:15.000Z,6308
2022-07-27T12:23:31.327Z,4116
2022-07-27T12:24:47.579Z,3744
2022-07-27T12:26:03.781Z,3436
2022-07-27T12:27:19.902Z,3088
2022-07-27T12:28:36.141Z,3312
2022-07-27T12:29:51.289Z,3964
2022-07-27T12:31:07.531Z,4880
2022-07-27T12:32:23.733Z,5860
2022-07-27T12:33:39.919Z,7740
2022-07-27T12:34:56.038Z,16324
2022-07-27T12:36:12.221Z,27840
2022-07-27T12:37:28.477Z,15688
2022-07-27T12:38:44.669Z,8328
2022-07-27T12:40:00.788Z,6104
2022-07-27T12:41:17.030Z,5368
2022-07-27T12:42:33.163Z,6092
2022-07-27T12:43:49.412Z,5820
2022-07-27T12:45:05.521Z,6484
2022-07-27T12:46:20.797Z,63264
2022-07-27T12:47:36.982Z,89600
2022-07-27T12:48:53.176Z,83712
2022-07-27T12:50:09.295Z,34720
2022-07-27T12:51:25.484Z,28064
2022-07-27T12:52:41.670Z,6972
2022-07-27T12:53:57.917Z,4572
2022-07-27T12:55:14.114Z,3700
2022-07-27T12:56:30.311Z,3548
2022-07-27T12:57:46.423Z,3856
2022-07-27T12:59:02.675Z,5504
2022-07-27T13:00:18.797Z,6804
2022-07-27T13:01:34.974Z,9404
2022-07-27T13:02:50.265Z,36704
2022-07-27T13:04:06.448Z,89056
2022-07-27T13:05:22.555Z,34368
2022-07-27T13:06:38.818Z,13052
2022-07-27T13:07:55.014Z,10928
2022-07-27T13:09:11.117Z,21984
2022-07-27T13:10:27.380Z,18252
2022-07-27T13:11:43.571Z,10792
2022-07-27T13:12:59.686Z,10808
2022-07-27T13:14:15.938Z,9352
2022-07-27T13:15:32.063Z,8688
2022-07-27T13:16:48.309Z,12648
2022-07-27T13:18:04.514Z,8860
2022-07-27T13:19:19.719Z,6364
2022-07-27T13:20:35.814Z,5292
2022-07-27T13:21:51.996Z,5660
2022-07-27T13:23:08.184Z,5852
2022-07-27T13:24:24.468Z,6148
2022-07-27T13:25:40.645Z,6508
2022-07-27T13:26:56.753Z,7716
2022-07-27T13:28:12.942Z,22720
2022-07-27T13:29:29.209Z,8996
2022-07-27T13:32:01.575Z,14236
2022-07-27T13:33:17.685Z,9164
2022-07-27T13:34:33.958Z,14888
2022-07-27T13:35:49.084Z,67488
2022-07-27T13:37:05.270Z,15008
2022-07-27T13:38:21.546Z,38176
2022-07-27T13:39:37.654Z,77760
2022-07-27T13:40:53.826Z,89952
2022-07-27T13:42:10.097Z,7192
2022-07-27T13:43:26.279Z,6516
2022-07-27T13:44:42.485Z,7792
2022-07-27T13:45:58.593Z,6196
2022-07-27T13:47:14.843Z,5168
2022-07-27T13:48:30.960Z,3904
2022-07-27T13:49:47.217Z,2984
2022-07-27T13:51:03.325Z,3180
2022-07-27T13:52:18.608Z,4076
2022-07-27T13:53:34.809Z,19840
2022-07-27T13:54:50.911Z,47488
2022-07-27T13:56:07.175Z,20928
2022-07-27T13:57:23.364Z,64032
2022-07-27T13:58:39.478Z,89696
2022-07-27T13:59:55.736Z,47968
2022-07-27T14:01:11.841Z,16036
2022-07-27T14:02:28.108Z,8796
2022-07-27T14:03:44.309Z,44160
2022-07-27T14:05:00.484Z,72928
2022-07-27T14:06:16.000Z,12216
2022-07-27T14:07:32.872Z,13232
2022-07-27T14:08:48.066Z,8864
2022-07-27T14:10:04.253Z,8152
2022-07-27T14:11:20.444Z,10948
2022-07-27T14:12:36.637Z,5808
2022-07-27T14:13:52.742Z,4836
2022-07-27T14:15:08.920Z,5312
2022-07-27T14:16:25.201Z,22784
2022-07-27T14:17:41.375Z,10720
2022-07-27T14:18:57.480Z,12452
2022-07-27T14:20:13.762Z,11804
2022-07-27T14:21:29.857Z,9292
2022-07-27T14:22:46.127Z,8392
2022-07-27T14:24:02.242Z,6396
2022-07-27T14:25:17.430Z,5464
2022-07-27T14:26:33.720Z,4748
2022-07-27T14:27:49.904Z,4288
2022-07-27T14:29:05.989Z,3684
2022-07-27T14:30:22.268Z,3124
2022-07-27T14:31:38.452Z,2876
2022-07-27T14:32:54.647Z,3012
2022-07-27T14:34:10.836Z,2652
2022-07-27T14:35:27.023Z,2460
2022-07-27T14:36:43.120Z,2388
2022-07-27T14:37:59.388Z,2484
2022-07-27T14:39:15.484Z,2812
2022-07-27T14:40:31.767Z,3840
2022-07-27T14:41:46.980Z,6048
2022-07-27T14:43:03.074Z,7464
2022-07-27T14:44:19.358Z,7560
2022-07-27T14:45:35.441Z,6320
2022-07-27T14:46:51.623Z,4852
2022-07-27T14:48:07.904Z,4240
2022-07-27T14:49:24.103Z,3528
2022-07-27T14:50:40.291Z,2884
2022-07-27T14:51:56.385Z,2408
2022-07-27T14:53:12.671Z,1936
2022-07-27T14:54:28.751Z,1748
2022-07-27T14:55:44.952Z,1848
2022-07-27T14:57:01.235Z,2036
2022-07-27T14:58:16.420Z,2404
2022-07-27T14:59:32.520Z,2688
2022-07-27T15:00:48.806Z,2724
2022-07-27T15:02:04.888Z,2588
2022-07-27T15:03:21.177Z,2560
2022-07-27T15:04:37.360Z,2836
2022-07-27T15:05:53.553Z,3288
2022-07-27T15:07:09.639Z,4004
2022-07-27T15:08:25.824Z,4256
2022-07-27T15:09:42.019Z,3548
2022-07-27T15:10:58.298Z,2544
2022-07-27T15:12:14.483Z,2184
2022-07-27T15:13:30.670Z,2232
2022-07-27T15:14:45.777Z,2608
2022-07-27T15:16:02.065Z,4008
2022-07-27T15:17:18.162Z,4888
2022-07-27T15:18:34.447Z,4656
2022-07-27T15:19:50.625Z,4272
2022-07-27T15:21:06.826Z,4020
2022-07-27T15:22:22.913Z,3888
2022-07-27T15:23:39.185Z,4428
2022-07-27T15:24:55.273Z,4524
2022-07-27T15:26:11.572Z,4928
2022-07-27T15:27:27.749Z,4788
2022-07-27T15:28:43.935Z,8404
2022-07-27T15:30:00.018Z,9996
2022-07-27T15:31:15.335Z,9832
2022-07-27T15:32:31.407Z,9780
2022-07-27T15:33:47.702Z,9816
2022-07-27T15:35:03.904Z,10052
2022-07-27T15:36:20.074Z,9836
2022-07-27T15:37:36.169Z,5616
2022-07-27T15:38:51.487Z,8936
2022-07-27T15:40:07.568Z,3068
2022-07-27T15:41:23.845Z,6460
2022-07-27T15:42:40.043Z,2824
2022-07-27T15:43:56.229Z,3072
2022-07-27T15:45:12.310Z,3240
2022-07-27T15:46:28.612Z,3376
2022-07-27T15:47:44.675Z,3456
2022-07-27T15:49:00.985Z,3668
2022-07-27T15:50:17.174Z,3440
2022-07-27T15:51:33.359Z,2856
2022-07-27T15:52:49.549Z,2460
2022-07-27T15:54:05.720Z,2392
2022-07-27T15:55:20.826Z,2504
2022-07-27T15:56:37.114Z,2540
2022-07-27T15:57:53.315Z,2700
2022-07-27T15:59:09.378Z,2680
2022-07-27T16:00:25.577Z,2468
2022-07-27T16:01:41.751Z,6004
2022-07-27T16:02:58.063Z,2428
2022-07-27T16:04:14.238Z,3724
2022-07-27T16:05:30.438Z,2988
2022-07-27T16:06:46.622Z,3612
2022-07-27T16:08:02.689Z,3456
2022-07-27T16:09:18.892Z,2968
2022-07-27T16:10:35.182Z,2448
2022-07-27T16:11:50.267Z,2260
2022-07-27T16:13:06.572Z,2340
2022-07-27T16:14:22.763Z,2376
2022-07-27T16:15:38.843Z,2276
2022-07-27T16:16:55.131Z,2376
2022-07-27T16:18:11.316Z,2288
2022-07-27T16:19:27.514Z,2112
2022-07-27T16:20:43.704Z,2256
2022-07-27T16:21:59.892Z,2228
2022-07-27T16:23:15.950Z,2052
2022-07-27T16:24:32.149Z,2276
2022-07-27T16:25:48.447Z,2368
2022-07-27T16:27:04.627Z,2180
2022-07-27T16:28:19.723Z,1996
2022-07-27T16:29:36.025Z,2032
2022-07-27T16:30:52.089Z,2232
2022-07-27T16:32:08.404Z,2136
2022-07-27T16:33:24.586Z,2192
2022-07-27T16:34:40.649Z,2200
2022-07-27T16:35:56.964Z,2108
2022-07-27T16:37:13.040Z,2204
2022-07-27T16:38:29.225Z,2280
2022-07-27T16:39:45.519Z,2336
2022-07-27T16:41:01.703Z,2280
2022-07-27T16:42:17.902Z,2036
2022-07-27T16:43:34.095Z,1976
2022-07-27T16:44:49.295Z,1936
2022-07-27T16:46:05.358Z,1904
2022-07-27T16:47:21.671Z,1816
2022-07-27T16:48:37.855Z,1736
2022-07-27T16:49:54.032Z,1888
2022-07-27T16:51:10.113Z,2068
2022-07-27T16:52:26.411Z,2200
2022-07-27T16:53:42.472Z,2320
2022-07-27T16:54:58.783Z,2448
2022-07-27T16:56:14.981Z,2512
2022-07-27T16:57:31.153Z,2304
2022-07-27T16:58:47.357Z,2108
2022-07-27T17:00:03.541Z,1984
2022-07-27T17:01:18.743Z,2036
2022-07-27T17:02:34.932Z,1996
2022-07-27T17:03:51.120Z,1872
2022-07-27T17:05:07.310Z,1676
2022-07-27T17:06:23.496Z,1592
2022-07-27T17:07:39.681Z,1688
2022-07-27T17:08:55.750Z,2056
2022-07-27T17:10:11.923Z,1968
2022-07-27T17:11:28.234Z,1620
2022-07-27T17:12:44.434Z,1528
2022-07-27T17:14:00.616Z,1248
2022-07-27T17:15:16.800Z,1140